• Join FlightAware (Why Join?)
  • Login
  • US Flag 
03:13PM EDT


 

Airport Tracker/Info


-or-


 

Live Flight TrackerFlight Track Log ✈ UAL252 ✈ 05-Aug-2013 ✈ MYNN / NAS - KEWR

Flight Track Log - Related Links

Times and Time Zones

All times are in EDT time to prevent confusion due to time zone crossing. See the UAL252 flight status page for this flight to view local times or setup timezone preferences in your user account.

Time Position Orientation Groundspeed Altitude Reporting Facility
EDT Latitude Longitude Course Direction KTS MPH feet Rate Location/Type
03:02PM 24.9236 -77.4064 299° West 451 519 5,200  Level Miami Center
03:03PM 25.2324 -77.7265 310° West  Level FlightAware Approximate
03:03PM 24.9381 -77.4617 286° West 288 331 7,800  Level Miami Center
03:04PM 25.3006 -77.8178 299° West  Level FlightAware Approximate
03:04PM 24.9983 -77.5397 310° West 237 273 11,000  Level Miami Center
03:05PM 25.3638 -77.9128 310° West  Level FlightAware Approximate
03:05PM 25.0461 -77.6089 307° West 268 308 13,000  Level Miami Center
03:06PM 25.4358 -78.0000 308° West  Level FlightAware Approximate
03:06PM 25.1083 -77.6872 311° West 302 348 15,300  Level Miami Center
03:07PM 25.5022 -78.0930 308° West  Level FlightAware Approximate
03:07PM 25.1725 -77.7681 311° West 336 387 17,700  Level Miami Center
03:08PM 25.5682 -78.1864 299° West  Level FlightAware Approximate
03:08PM 25.2369 -77.8536 310° West 352 405 19,500  Level Miami Center
03:09PM 25.3031 -77.9414 310° West 364 419 21,500 1,620 Climbing Miami Center
03:10PM 25.3733 -78.0294 311° West 369 425 22,800 1,440 Climbing Miami Center
03:11PM 25.4417 -78.1222 309° West 380 437 24,400 1,500 Climbing Miami Center
03:12PM 25.5203 -78.2083 315° West 390 449 25,900 1,260 Climbing Miami Center
03:13PM 25.6117 -78.2783 325° Northwest 390 449 27,000 1,260 Climbing Miami Center
03:14PM 25.7069 -78.3464 327° Northwest 404 465 28,500 1,200 Climbing Miami Center
03:15PM 25.8044 -78.4192 326° Northwest 414 476 29,500 840 Climbing Miami Center
03:16PM 25.9019 -78.4944 325° Northwest 420 483 30,200 720 Climbing Miami Center
03:17PM 26.0161 -78.5628 332° Northwest 431 496 31,000 840 Climbing Miami Center
03:18PM 26.1111 -78.6500 321° Northwest 443 510 31,900 960 Climbing Miami Center
03:19PM 26.2189 -78.7256 328° Northwest 448 516 33,000 900 Climbing Miami Center
03:20PM 26.3244 -78.8039 326° Northwest 453 521 33,800 1,080 Climbing Miami Center
03:21PM 26.4297 -78.8819 326° Northwest 453 521 35,200 1,260 Climbing Miami Center
03:22PM 26.5292 -78.9558 326° Northwest 446 513 36,400 840 Climbing Miami Center
03:23PM 26.6325 -79.0319 327° Northwest 446 513 36,900 240 Climbing Miami Center
03:24PM 26.7336 -79.1106 325° Northwest 440 506 36,900  Level Miami Center
03:25PM 26.8347 -79.1847 327° Northwest 440 506 36,900  Level Miami Center
03:26PM 26.9336 -79.2636 325° Northwest 440 506 36,900  Level Miami Center
03:27PM 27.0306 -79.3403 325° Northwest 440 506 37,000  Climbing Miami Center
03:28PM 27.1419 -79.4242 326° Northwest 440 506 36,900 -60 Descending Miami Center
03:29PM 27.2408 -79.4989 326° Northwest 440 506 36,900  Level Miami Center
03:30PM 27.3397 -79.5736 326° Northwest 440 506 37,000  Climbing Miami Center
03:31PM 27.4303 -79.6436 326° Northwest 434 499 37,000  Level Miami Center
03:32PM 27.5311 -79.7186 327° Northwest 434 499 37,000  Level Miami Center
03:33PM 27.6400 -79.8058 325° Northwest 434 499 37,000  Level Miami Center
03:34PM 27.7367 -79.8786 326° Northwest 434 499 37,000 -60 Level Miami Center
03:35PM 27.8331 -79.9539 325° Northwest 427 491 36,900 -60 Descending Miami Center
03:36PM 27.9236 -80.0222 326° Northwest 432 497 36,900  Level Miami Center
03:37PM 28.0322 -80.1075 325° Northwest 437 503 37,000  Climbing Miami Center
03:38PM 28.1308 -80.1786 328° Northwest 431 496 37,000 -60 Level Miami Center
03:39PM 28.2358 -80.2383 333° Northwest 419 482 36,900 -60 Descending Miami Center
03:40PM 28.3306 -80.2956 332° Northwest 414 476 36,900  Level Miami Center
03:42PM 28.5478 -80.4231 333° Northwest 413 475 37,000  Climbing Jacksonville Center
03:43PM 28.6511 -80.4844 332° Northwest 413 475 36,900 -60 Descending Jacksonville Center
03:44PM 28.7547 -80.5481 332° Northwest 413 475 36,900  Level Jacksonville Center
03:45PM 28.8558 -80.6097 332° Northwest 413 475 36,900  Level Jacksonville Center
03:46PM 28.9614 -80.6714 333° Northwest 413 475 36,900  Level Jacksonville Center
03:47PM 29.0667 -80.7331 333° Northwest 413 475 36,900  Level Jacksonville Center
03:48PM 29.1722 -80.7950 333° Northwest 413 475 36,900  Level Jacksonville Center
03:49PM 29.2733 -80.8547 333° Northwest 413 475 36,900  Level Jacksonville Center
03:50PM 29.3744 -80.9169 332° Northwest 413 475 36,900  Level Jacksonville Center
03:51PM 29.4756 -80.9842 330° Northwest 413 475 37,000  Climbing Jacksonville Center
03:52PM 29.5789 -81.0442 333° Northwest 413 475 37,000  Level Jacksonville Center
03:53PM 29.6800 -81.1092 331° Northwest 413 475 37,000  Level Jacksonville Center
03:54PM 29.7831 -81.1697 333° Northwest 413 475 37,000  Level Jacksonville Center
03:55PM 29.8861 -81.2347 331° Northwest 418 481 37,000  Level Jacksonville Center
03:56PM 29.9872 -81.2956 332° Northwest 418 481 37,000 -60 Level Jacksonville Center
03:57PM 30.1044 -81.3175 351° North 418 481 36,900  Descending Jacksonville Center
03:58PM 30.2214 -81.3275 356° North 418 481 37,000  Climbing Jacksonville Center
03:59PM 30.3489 -81.3400 355° North 418 481 37,000  Level Jacksonville Center
04:00PM 30.4661 -81.3525 355° North 418 481 37,000  Level Jacksonville Center
04:01PM 30.5831 -81.3653 355° North 418 481 37,000  Level Jacksonville Center
04:02PM 30.6961 -81.3778 355° North 418 481 37,000  Level Jacksonville Center
04:03PM 30.8108 -81.3906 355° North 418 481 37,000  Level Jacksonville Center
04:04PM 30.9281 -81.4031 355° North 418 481 37,000  Level Jacksonville Center
04:05PM 31.0406 -81.3892 North 413 475 37,000 -60 Level Jacksonville Center
04:06PM 31.1575 -81.3778 North 407 468 36,900  Descending Jacksonville Center
04:07PM 31.2675 -81.3322 19° North 407 468 37,000  Climbing Jacksonville Center
04:08PM 31.3733 -81.2719 26° Northeast 415 478 37,000  Level Jacksonville Center
04:09PM 31.4667 -81.2217 25° Northeast 415 478 37,000  Level Jacksonville Center
04:10PM 31.5825 -81.1586 25° Northeast 417 480 37,000 -60 Level Jacksonville Center
04:11PM 31.6883 -81.1006 25° Northeast 417 480 36,900 -60 Descending Jacksonville Center
04:12PM 31.7939 -81.0422 25° Northeast 417 480 36,900  Level Jacksonville Center
04:13PM 31.8994 -80.9864 24° Northeast 412 474 36,900  Level Jacksonville Center
04:14PM 31.9947 -80.9306 26° Northeast 417 480 37,000  Climbing Jacksonville Center
04:15PM 32.1128 -80.8667 25° Northeast 417 480 37,000  Level Jacksonville Center
04:16PM 32.2203 -80.8078 25° Northeast 417 480 37,000  Level Jacksonville Center
04:17PM 32.3156 -80.7539 26° Northeast 417 480 37,000 -60 Level Jacksonville Center
04:18PM 32.4314 -80.6922 24° Northeast 417 480 36,900 -60 Descending Jacksonville Center
04:19PM 32.5325 -80.6331 26° Northeast 405 466 36,900  Level Jacksonville Center
04:20PM 32.6381 -80.5736 25° Northeast 405 466 36,900  Level Jacksonville Center
04:21PM 32.7414 -80.5167 25° Northeast 405 466 36,900  Level Jacksonville Center
04:22PM 32.8444 -80.4594 25° Northeast 399 459 36,900  Level Jacksonville Center
04:23PM 32.9417 -80.4025 26° Northeast 407 468 36,900  Level Jacksonville Center
04:24PM 33.0406 -80.3453 26° Northeast 413 475 37,000  Climbing Jacksonville Center
04:25PM 33.1478 -80.2850 25° Northeast 413 475 37,000 -60 Level Jacksonville Center
04:26PM 33.2572 -80.2272 24° Northeast 420 483 36,900 -60 Descending Jacksonville Center
04:27PM 33.3603 -80.1669 26° Northeast 415 478 36,900  Level Jacksonville Center
04:28PM 33.4633 -80.1067 26° Northeast 415 478 36,900  Level Jacksonville Center
04:29PM 33.5664 -80.0461 26° Northeast 415 478 36,900  Level Jacksonville Center
04:30PM 33.6694 -79.9878 25° Northeast 415 478 36,900  Level Jacksonville Center
04:31PM 33.7744 -79.9244 27° Northeast 410 472 36,900  Level Jacksonville Center
04:32PM 33.8772 -79.8658 25° Northeast 410 472 36,900  Level Jacksonville Center
04:33PM 33.9822 -79.8072 25° Northeast 410 472 36,900  Level Jacksonville Center
04:34PM 34.0831 -79.7433 28° Northeast 405 466 36,900  Level Jacksonville Center
04:35PM 34.1878 -79.6844 25° Northeast 405 466 36,900  Level Jacksonville Center
04:36PM 34.2844 -79.6281 26° Northeast 398 458 37,000  Climbing Jacksonville Center
04:38PM 34.4169 -79.5594 23° Northeast 395 455 37,000  Level Washington Center
04:39PM 34.5250 -79.5042 23° Northeast 395 455 37,000  Level Washington Center
04:40PM 34.6272 -79.4461 25° Northeast 405 466 37,000  Level Washington Center
04:41PM 34.7353 -79.3906 23° Northeast 405 466 37,000  Level Washington Center
04:42PM 34.8394 -79.3347 24° Northeast 405 466 37,000 420 Level Washington Center
04:43PM 34.9453 -79.2786 23° Northeast 405 466 37,900 480 Climbing Washington Center
04:44PM 35.0472 -79.2225 24° Northeast 405 466 38,000  Climbing Washington Center
04:45PM 35.1533 -79.1664 23° Northeast 405 466 38,000  Level Washington Center
04:46PM 35.2594 -79.1100 23° Northeast 405 466 38,000  Level Washington Center
04:47PM 35.3633 -79.0533 24° Northeast 405 466 38,000  Level Washington Center
04:48PM 35.4692 -78.9942 24° Northeast 405 466 38,000  Level Washington Center
04:49PM 35.5772 -78.9375 23° Northeast 405 466 38,000 -60 Level Washington Center
04:50PM 35.6811 -78.8806 24° Northeast 405 466 37,900 -60 Descending Washington Center
04:51PM 35.7764 -78.8281 24° Northeast 405 466 37,900  Level Washington Center
04:52PM 35.8803 -78.7683 25° Northeast 405 466 37,900  Level Washington Center
04:53PM 35.9861 -78.7083 25° Northeast 405 466 38,000  Climbing Washington Center
04:54PM 36.0900 -78.6508 24° Northeast 405 466 38,000  Level Washington Center
04:55PM 36.1978 -78.5906 24° Northeast 405 466 38,000  Level Washington Center
04:56PM 36.3014 -78.5328 24° Northeast 405 466 38,000  Level Washington Center
04:57PM 36.4094 -78.4722 24° Northeast 405 466 38,000  Level Washington Center
04:58PM 36.5172 -78.4117 24° Northeast 405 466 38,000  Level Washington Center
04:59PM 36.6228 -78.3533 24° Northeast 405 466 38,000  Level Washington Center
05:00PM 36.7267 -78.2922 25° Northeast 405 466 38,000  Level Washington Center
05:01PM 36.8342 -78.2311 24° Northeast 405 466 38,000 -60 Level Washington Center
05:02PM 36.9419 -78.1672 25° Northeast 411 473 37,900  Descending Washington Center
05:03PM 37.0478 -78.1056 25° Northeast 411 473 38,000  Climbing Washington Center
05:04PM 37.1594 -78.0442 24° Northeast 417 480 38,000  Level Washington Center
05:05PM 37.2672 -77.9797 25° Northeast 422 486 38,000  Level Washington Center
05:06PM 37.3747 -77.9203 24° Northeast 422 486 38,000  Level Washington Center
05:07PM 37.4822 -77.8583 25° Northeast 422 486 38,000  Level Washington Center
05:08PM 37.5881 -77.7775 31° Northeast 422 486 38,000  Level Washington Center
05:09PM 37.6900 -77.6861 35° Northeast 434 499 38,000  Level Washington Center
05:10PM 37.7894 -77.5942 36° Northeast 445 512 38,000  Level Washington Center
05:11PM 37.8889 -77.5019 36° Northeast 445 512 38,000  Level Washington Center
05:12PM 37.9883 -77.4097 36° Northeast 445 512 38,000 -60 Level Washington Center
05:13PM 38.0942 -77.3147 35° Northeast 434 499 37,900 -60 Descending Washington Center
05:14PM 38.1914 -77.2269 35° Northeast 429 494 37,900  Level Washington Center
05:15PM 38.2800 -77.1417 37° Northeast 429 494 37,900  Level Washington Center
05:16PM 38.3833 -77.0458 36° Northeast 429 494 38,000  Climbing Washington Center
05:17PM 38.4825 -76.9550 36° Northeast 429 494 38,000  Level Washington Center
05:18PM 38.5708 -76.8717 36° Northeast 434 499 38,000 -240 Level Washington Center
05:19PM 38.6678 -76.7803 36° Northeast 434 499 37,600 -660 Descending Washington Center
05:20PM 38.7583 -76.6831 40° Northeast 434 499 36,700 -1,440 Descending Washington Center
05:21PM 38.8508 -76.5778 42° Northeast 434 499 34,800 -2,040 Descending Washington Center
05:22PM 38.9456 -76.4669 42° Northeast 434 499 32,800 -1,980 Descending Washington Center
05:23PM 39.0403 -76.3586 42° Northeast 447 514 30,800 -1,920 Descending Washington Center
05:24PM 39.1347 -76.2472 42° Northeast 453 521 28,900 -1,800 Descending Washington Center
05:25PM 39.2353 -76.1328 41° Northeast 464 534 27,300 -1,320 Descending Washington Center
05:26PM 39.3336 -76.0208 41° Northeast 464 534 26,400 -1,500 Descending Washington Center
05:27PM 39.4278 -75.9086 43° Northeast 464 534 24,300 -1,980 Descending Washington Center
05:28PM 39.5197 -75.7986 43° Northeast 459 528 22,600 -1,620 Descending Washington Center
05:29PM 39.6072 -75.6939 43° Northeast 442 509 21,200 -1,440 Descending Washington Center
05:30PM 39.6928 -75.5914 43° Northeast 428 493 19,700 -1,620 Descending Washington Center
05:31PM 39.7739 -75.4942 43° Northeast 411 473 18,000 -1,680 Descending Washington Center
05:32PM 39.8572 -75.3942 43° Northeast 401 461 16,400 -1,620 Descending Washington Center
05:33PM 39.9361 -75.2992 43° Northeast 394 453 14,800 -1,620 Descending Washington Center
05:34PM 40.0150 -75.2014 43° Northeast 394 453 13,200 -1,620 Descending Washington Center
05:35PM 40.0897 -75.1089 43° Northeast 383 441 11,700 -1,560 Descending Washington Center
05:35PM 40.1500 -75.0333 44° Northeast 357 411 10,500 -1,320 Descending New York TRACON
05:36PM 40.2167 -74.9500 44° Northeast 299 344 9,300 -1,200 Descending New York TRACON
05:37PM 40.2833 -74.8833 37° Northeast 285 328 8,200 -720 Descending New York TRACON
05:38PM 40.3333 -74.8000 52° Northeast 276 318 8,000 -300 Descending New York TRACON
05:39PM 40.3833 -74.7333 45° Northeast 240 276 7,600 -780 Descending New York TRACON
05:40PM 40.4167 -74.6667 57° Northeast 237 273 6,400 -780 Descending New York TRACON
05:41PM 40.4167 -74.6000 90° East 247 284 6,000 -600 Descending New York TRACON
05:42PM 40.4000 -74.5167 105° East 236 272 5,200 -1,020 Descending New York TRACON
05:43PM 40.4167 -74.4500 72° East 228 262 4,100 -900 Descending New York TRACON
05:44PM 40.4500 -74.3667 62° Northeast 226 260 3,600 -540 Descending New York TRACON
05:45PM 40.4833 -74.3000 57° Northeast 200 230 3,000 -300 Descending New York TRACON
05:46PM 40.5167 -74.2667 37° Northeast 183 211 3,000 -240 Level New York TRACON
05:47PM 40.5667 -74.2500 14° North 189 217 2,600 -840 Descending New York TRACON
05:48PM 40.6167 -74.2167 27° Northeast 180 207 1,300 -960 Descending New York TRACON
05:49PM 40.6500 -74.1833 37° Northeast 141 162 700 -720 Descending New York TRACON